Villa Allende, Argentina
Current Conditions -  °F | °C
As of 3:00 PM on Tuesday 27 Jan 2015 (Local Time) from SACO Reporting Station
Scattered Clouds Scattered Clouds  
Wind Chill: 84°   Ceiling: Unl
Heat Index: 88°   Visibility: 6mi
Dew Point: 70°   Wind: 6mph
Humidity: 62%   Direction: 50°NE
Pressure: 29.83"   Gusts: NA
Location:  31.3°S, 64.3°W
Report Text: SACO 271800Z 05005KT 9999 FEW025 SCT10029/21 Q1010
Loading
Personal Weather Stations






























Interactive Weather Map New forecast layout! Learn more

10-Day Weather Forecast

Advertisements
Track Severe Weather on mobile